createdAt,value
2023-04-29T00:00:20.900Z,9.29
2023-04-29T00:03:23.576Z,9.30
2023-04-29T00:06:28.145Z,9.28
2023-04-29T00:09:30.665Z,9.25
2023-04-29T00:12:33.442Z,9.23
2023-04-29T00:15:37.426Z,9.23
2023-04-29T00:18:39.947Z,9.21
2023-04-29T00:21:43.851Z,9.21
2023-04-29T00:24:46.369Z,9.21
2023-04-29T00:27:48.897Z,9.20
2023-04-29T00:30:51.697Z,9.18
2023-04-29T00:33:54.299Z,9.15
2023-04-29T00:36:58.208Z,9.12
2023-04-29T00:40:00.774Z,9.09
2023-04-29T00:43:03.370Z,9.04
2023-04-29T00:46:06.045Z,9.01
2023-04-29T00:49:08.582Z,9.01
2023-04-29T00:52:12.752Z,8.99
2023-04-29T00:55:15.340Z,8.97
2023-04-29T00:58:18.417Z,8.96
2023-04-29T01:01:21.771Z,8.95
2023-04-29T01:04:24.391Z,8.94
2023-04-29T01:07:31.457Z,8.93
2023-04-29T01:10:36.824Z,8.92
2023-04-29T01:13:43.761Z,8.91
2023-04-29T01:16:49.587Z,8.91
2023-04-29T01:19:55.082Z,8.91
2023-04-29T01:22:58.999Z,8.90
2023-04-29T01:26:02.842Z,8.91
2023-04-29T01:29:11.745Z,8.89
2023-04-29T01:32:15.888Z,8.88
2023-04-29T01:35:26.648Z,8.88
2023-04-29T01:38:34.076Z,8.89
2023-04-29T01:41:40.502Z,8.87
2023-04-29T01:44:43.087Z,8.82
2023-04-29T01:47:46.221Z,8.83
2023-04-29T01:50:48.839Z,8.84
2023-04-29T01:53:51.603Z,8.86
2023-04-29T01:56:55.484Z,8.86
2023-04-29T01:59:58.159Z,8.86
2023-04-29T02:03:00.874Z,8.87
2023-04-29T02:06:04.352Z,8.87
2023-04-29T02:09:06.975Z,8.87
2023-04-29T02:12:10.900Z,8.90
2023-04-29T02:15:13.504Z,8.88
2023-04-29T02:18:16.069Z,8.88
2023-04-29T02:21:18.585Z,8.87
2023-04-29T02:24:21.088Z,8.89
2023-04-29T02:27:25.032Z,8.88
2023-04-29T02:30:27.626Z,8.90
2023-04-29T02:33:30.220Z,8.90
2023-04-29T02:36:32.777Z,8.90
2023-04-29T02:39:35.333Z,8.89
2023-04-29T02:42:39.198Z,8.91
2023-04-29T02:45:41.721Z,8.91
2023-04-29T02:48:44.319Z,8.91
2023-04-29T02:51:49.538Z,8.92
2023-04-29T02:54:52.095Z,8.93
2023-04-29T02:57:55.946Z,8.91
2023-04-29T03:00:58.472Z,8.90
2023-04-29T03:04:01.368Z,8.91
2023-04-29T03:07:04.808Z,8.91
2023-04-29T03:10:08.978Z,8.93
2023-04-29T03:13:12.893Z,8.93
2023-04-29T03:16:16.873Z,8.94
2023-04-29T03:19:19.556Z,8.95
2023-04-29T03:22:22.097Z,8.94
2023-04-29T03:25:24.875Z,8.94
2023-04-29T03:28:28.725Z,8.95
2023-04-29T03:31:31.340Z,8.96
2023-04-29T03:34:34.298Z,8.97
2023-04-29T03:37:37.097Z,8.97
2023-04-29T03:40:39.672Z,8.97
2023-04-29T03:43:44.533Z,8.95
2023-04-29T03:46:47.094Z,8.96
2023-04-29T03:49:49.720Z,8.97
2023-04-29T03:52:52.327Z,8.99
2023-04-29T03:55:54.877Z,8.99
2023-04-29T03:58:58.880Z,9.00
2023-04-29T04:02:01.485Z,8.99
2023-04-29T04:05:04.183Z,8.99
2023-04-29T04:08:06.887Z,8.99
2023-04-29T04:11:09.713Z,8.99
2023-04-29T04:14:13.958Z,8.98
2023-04-29T04:17:16.463Z,8.98
2023-04-29T04:20:19.387Z,8.98
2023-04-29T04:23:21.932Z,8.99
2023-04-29T04:26:24.509Z,8.98
2023-04-29T04:29:28.409Z,8.97
2023-04-29T04:32:31.024Z,8.99
2023-04-29T04:35:33.636Z,8.99
2023-04-29T04:38:36.208Z,9.01
2023-04-29T04:41:39.535Z,8.99
2023-04-29T04:44:43.452Z,8.99
2023-04-29T04:47:46.021Z,9.01
2023-04-29T04:50:48.604Z,9.00
2023-04-29T04:53:51.597Z,9.03
2023-04-29T04:56:54.142Z,9.04
2023-04-29T04:59:58.088Z,9.05
2023-04-29T05:03:00.910Z,9.03
2023-04-29T05:06:03.514Z,9.03
2023-04-29T05:09:06.300Z,9.03
2023-04-29T05:12:08.826Z,9.02
2023-04-29T05:15:14.855Z,9.03
2023-04-29T05:18:17.423Z,9.04
2023-04-29T05:21:19.992Z,9.05
2023-04-29T05:24:22.502Z,9.04
2023-04-29T05:27:25.172Z,9.05
2023-04-29T05:30:29.070Z,9.05
2023-04-29T05:33:31.589Z,9.04
2023-04-29T05:36:34.152Z,9.05
2023-04-29T05:39:36.708Z,9.05
2023-04-29T05:42:39.276Z,9.04
2023-04-29T05:45:43.171Z,9.06
2023-04-29T05:48:46.080Z,9.06
2023-04-29T05:51:48.655Z,9.08
2023-04-29T05:54:51.356Z,9.09
2023-04-29T05:57:53.921Z,9.09
2023-04-29T06:00:59.923Z,9.11
2023-04-29T06:04:02.861Z,9.13
2023-04-29T06:07:05.755Z,9.15
2023-04-29T06:10:09.560Z,9.16
2023-04-29T06:13:12.125Z,9.19
2023-04-29T06:16:16.091Z,9.21
2023-04-29T06:19:19.219Z,9.23
2023-04-29T06:22:21.768Z,9.25
2023-04-29T06:25:24.346Z,9.29
2023-04-29T06:28:27.008Z,9.35
2023-04-29T06:31:30.977Z,9.40
2023-04-29T06:34:33.737Z,9.48
2023-04-29T06:37:37.938Z,9.57
2023-04-29T06:40:40.811Z,9.75
2023-04-29T06:43:43.696Z,9.92
2023-04-29T06:46:47.786Z,10.08
2023-04-29T06:49:50.806Z,10.24
2023-04-29T06:52:54.091Z,10.40
2023-04-29T06:55:56.640Z,10.55
2023-04-29T06:58:59.161Z,10.72
2023-04-29T07:02:02.977Z,10.86
2023-04-29T07:05:06.294Z,11.03
2023-04-29T07:08:09.984Z,11.16
2023-04-29T07:11:12.892Z,11.27
2023-04-29T07:14:16.015Z,11.40
2023-04-29T07:17:20.648Z,11.56
2023-04-29T07:20:23.310Z,11.68
2023-04-29T07:23:26.169Z,11.81
2023-04-29T07:26:28.730Z,11.86
2023-04-29T07:29:31.294Z,11.95
2023-04-29T07:32:35.541Z,11.90
2023-04-29T07:35:38.155Z,11.92
2023-04-29T07:38:40.701Z,11.98
2023-04-29T07:41:43.284Z,12.00
2023-04-29T07:44:46.188Z,11.99
2023-04-29T07:47:50.144Z,11.99
2023-04-29T07:50:52.754Z,12.01
2023-04-29T07:53:55.302Z,12.07
2023-04-29T07:56:58.913Z,12.20
2023-04-29T08:00:01.487Z,12.41
2023-04-29T08:03:05.545Z,12.57
2023-04-29T08:06:08.324Z,12.73
2023-04-29T08:09:11.326Z,12.77
2023-04-29T08:12:13.905Z,12.77
2023-04-29T08:15:16.675Z,12.82
2023-04-29T08:18:21.177Z,12.91
2023-04-29T08:21:23.744Z,13.10
2023-04-29T08:24:26.552Z,13.27
2023-04-29T08:27:29.109Z,13.44
2023-04-29T08:30:31.666Z,13.48
2023-04-29T08:33:35.883Z,13.45
2023-04-29T08:36:38.624Z,13.44
2023-04-29T08:39:43.295Z,13.48
2023-04-29T08:42:47.437Z,13.62
2023-04-29T08:45:51.479Z,13.78
2023-04-29T08:48:56.388Z,13.87
2023-04-29T08:51:58.977Z,13.88
2023-04-29T08:55:02.493Z,13.98
2023-04-29T08:58:05.088Z,13.95
2023-04-29T09:01:09.164Z,14.08
2023-04-29T09:04:24.731Z,14.28
2023-04-29T09:07:27.298Z,14.41
2023-04-29T09:10:29.857Z,14.34
2023-04-29T09:13:32.934Z,14.44
2023-04-29T09:16:37.351Z,14.66
2023-04-29T09:19:41.298Z,14.82
2023-04-29T09:22:48.498Z,14.97
2023-04-29T09:25:56.281Z,15.08
2023-04-29T09:29:07.777Z,15.20
2023-04-29T09:32:20.255Z,15.34
2023-04-29T09:35:25.537Z,15.43
2023-04-29T09:38:28.176Z,15.56
2023-04-29T09:41:30.734Z,15.60
2023-04-29T09:44:35.788Z,15.62
2023-04-29T09:47:38.471Z,15.56
2023-04-29T09:50:43.637Z,15.58
2023-04-29T09:53:46.507Z,15.72
2023-04-29T09:56:49.924Z,15.56
2023-04-29T09:59:52.469Z,15.55
2023-04-29T10:02:55.372Z,15.80
2023-04-29T10:05:59.568Z,15.98
2023-04-29T10:09:02.123Z,16.19
2023-04-29T10:12:04.964Z,16.31
2023-04-29T10:15:10.862Z,16.12
2023-04-29T10:18:15.511Z,15.90
2023-04-29T10:21:19.429Z,15.70
2023-04-29T10:24:21.997Z,15.82
2023-04-29T10:27:25.393Z,15.88
2023-04-29T10:30:27.974Z,16.07
2023-04-29T10:33:32.238Z,16.28
2023-04-29T10:36:36.172Z,16.50
2023-04-29T10:39:43.600Z,16.59
2023-04-29T10:42:47.060Z,16.40
2023-04-29T10:45:49.608Z,16.41
2023-04-29T10:48:55.396Z,16.60
2023-04-29T10:52:04.339Z,16.76
2023-04-29T10:55:07.943Z,16.90
2023-04-29T10:58:45.723Z,17.11
2023-04-29T11:01:49.523Z,17.18
2023-04-29T11:05:12.184Z,17.08
2023-04-29T11:08:22.934Z,16.90
2023-04-29T11:11:27.119Z,17.01
2023-04-29T11:14:37.487Z,17.10
2023-04-29T11:17:40.510Z,17.17
2023-04-29T11:21:13.816Z,17.43
2023-04-29T11:24:17.871Z,17.36
2023-04-29T11:27:22.772Z,17.15
2023-04-29T11:30:25.703Z,17.16
2023-04-29T11:33:28.666Z,17.27
2023-04-29T11:36:32.738Z,17.52
2023-04-29T11:39:36.796Z,17.72
2023-04-29T11:42:42.335Z,17.90
2023-04-29T11:45:46.230Z,18.10
2023-04-29T11:48:48.889Z,18.24
2023-04-29T11:51:51.814Z,18.30
2023-04-29T11:54:55.826Z,18.39
2023-04-29T11:57:58.439Z,18.49
2023-04-29T12:01:00.953Z,18.57
2023-04-29T12:04:05.876Z,18.63
2023-04-29T12:07:10.894Z,18.72
2023-04-29T12:13:17.693Z,18.67
2023-04-29T12:16:20.464Z,18.65
2023-04-29T12:19:23.656Z,18.65
2023-04-29T12:22:32.204Z,18.68
2023-04-29T12:25:36.091Z,18.72
2023-04-29T12:28:38.812Z,18.80
2023-04-29T12:31:41.742Z,18.87
2023-04-29T12:34:45.638Z,18.92
2023-04-29T12:37:51.641Z,19.02
2023-04-29T12:40:55.845Z,19.17
2023-04-29T12:43:58.344Z,19.21
2023-04-29T12:47:08.944Z,19.25
2023-04-29T12:50:11.869Z,19.32
2023-04-29T12:53:14.360Z,19.33
2023-04-29T12:56:18.264Z,19.31
2023-04-29T12:59:21.196Z,19.29
2023-04-29T13:02:23.905Z,19.32
2023-04-29T13:05:26.488Z,19.35
2023-04-29T13:08:29.064Z,19.36
2023-04-29T13:11:34.872Z,19.34
2023-04-29T13:14:37.574Z,19.35
2023-04-29T13:17:40.243Z,19.39
2023-04-29T13:20:42.844Z,19.38
2023-04-29T13:23:46.268Z,19.37
2023-04-29T13:26:52.411Z,19.36
2023-04-29T13:29:56.155Z,19.35
2023-04-29T13:33:04.385Z,19.33
2023-04-29T13:36:14.105Z,19.29
2023-04-29T13:39:17.472Z,19.30
2023-04-29T13:42:25.493Z,19.33
2023-04-29T13:45:29.380Z,19.38
2023-04-29T13:49:08.179Z,19.41
2023-04-29T13:52:37.576Z,19.42
2023-04-29T13:56:01.609Z,19.39
2023-04-29T13:59:30.755Z,19.33
2023-04-29T14:05:10.643Z,19.20
2023-04-29T14:08:14.037Z,19.13
2023-04-29T14:11:16.924Z,19.12
2023-04-29T14:14:20.803Z,19.13
2023-04-29T14:17:23.381Z,19.09
2023-04-29T14:20:25.932Z,19.06
2023-04-29T14:23:28.507Z,19.00
2023-04-29T14:26:31.178Z,18.94
2023-04-29T14:29:35.159Z,18.90
2023-04-29T14:32:37.765Z,18.88
2023-04-29T14:35:41.017Z,18.89
2023-04-29T14:38:43.604Z,18.85
2023-04-29T14:41:46.727Z,18.79
2023-04-29T14:44:51.528Z,18.74
2023-04-29T14:47:54.230Z,18.70
2023-04-29T14:50:56.833Z,18.64
2023-04-29T14:53:59.379Z,18.59
2023-04-29T14:57:02.111Z,18.51
2023-04-29T15:00:08.237Z,18.45
2023-04-29T15:03:10.933Z,18.39
2023-04-29T15:06:13.969Z,18.33
2023-04-29T15:09:16.633Z,18.33
2023-04-29T15:12:21.024Z,18.31
2023-04-29T15:15:24.976Z,18.31
2023-04-29T15:18:27.506Z,18.30
2023-04-29T15:21:30.136Z,18.23
2023-04-29T15:24:32.694Z,18.12
2023-04-29T15:27:35.575Z,18.04
2023-04-29T15:30:39.508Z,17.98
2023-04-29T15:33:42.196Z,17.96
2023-04-29T15:36:44.766Z,17.94
2023-04-29T15:39:47.272Z,17.91
2023-04-29T15:42:49.798Z,17.87
2023-04-29T15:45:53.787Z,17.80
2023-04-29T15:48:56.420Z,17.70
2023-04-29T15:51:58.936Z,17.64
2023-04-29T15:55:01.435Z,17.62
2023-04-29T15:58:03.953Z,17.59
2023-04-29T16:01:07.918Z,17.59
2023-04-29T16:04:10.688Z,17.59
2023-04-29T16:07:13.336Z,17.58
2023-04-29T16:10:15.837Z,17.55
2023-04-29T16:13:18.377Z,17.54
2023-04-29T16:16:23.334Z,17.50
2023-04-29T16:19:25.955Z,17.46
2023-04-29T16:22:28.855Z,17.40
2023-04-29T16:25:31.425Z,17.36
2023-04-29T16:28:34.011Z,17.27
2023-04-29T16:31:38.170Z,17.21
2023-04-29T16:34:41.731Z,17.12
2023-04-29T16:37:44.293Z,17.05
2023-04-29T16:40:48.197Z,17.00
2023-04-29T16:43:52.039Z,16.96
2023-04-29T16:46:55.966Z,16.92
2023-04-29T16:49:58.486Z,16.81
2023-04-29T16:53:01.144Z,16.69
2023-04-29T16:56:03.796Z,16.61
2023-04-29T16:59:06.464Z,16.52
2023-04-29T17:02:10.309Z,16.38
2023-04-29T17:05:12.876Z,16.25
2023-04-29T17:08:15.460Z,16.17
2023-04-29T17:11:18.264Z,16.04
2023-04-29T17:14:20.784Z,15.82
2023-04-29T17:17:24.757Z,15.64
2023-04-29T17:20:27.348Z,15.56
2023-04-29T17:23:30.517Z,15.53
2023-04-29T17:26:33.292Z,15.50
2023-04-29T17:29:35.818Z,15.37
2023-04-29T17:32:39.875Z,15.25
2023-04-29T17:35:42.399Z,15.16
2023-04-29T17:38:44.964Z,15.12
2023-04-29T17:41:47.536Z,15.09
2023-04-29T17:44:50.127Z,15.06
2023-04-29T17:47:54.054Z,15.03
2023-04-29T17:50:56.607Z,15.03
2023-04-29T17:53:59.308Z,14.98
2023-04-29T17:57:03.211Z,14.88
2023-04-29T18:00:07.280Z,14.83
2023-04-29T18:03:11.236Z,14.80
2023-04-29T18:06:13.897Z,14.75
2023-04-29T18:09:17.774Z,14.71
2023-04-29T18:12:20.661Z,14.66
2023-04-29T18:15:23.228Z,14.59
2023-04-29T18:18:27.283Z,14.50
2023-04-29T18:21:30.179Z,14.46
2023-04-29T18:24:32.728Z,14.34
2023-04-29T18:27:35.317Z,14.28
2023-04-29T18:30:37.852Z,14.20
2023-04-29T18:33:41.963Z,14.14
2023-04-29T18:36:44.553Z,14.12
2023-04-29T18:39:47.128Z,14.10
2023-04-29T18:42:49.681Z,14.08
2023-04-29T18:45:52.460Z,14.06
2023-04-29T18:48:56.345Z,14.04
2023-04-29T18:52:01.093Z,13.95
2023-04-29T18:55:04.358Z,13.93
2023-04-29T18:58:06.887Z,13.90
2023-04-29T19:01:09.811Z,13.86
2023-04-29T19:04:14.019Z,13.82
2023-04-29T19:07:16.621Z,13.76
2023-04-29T19:10:19.254Z,13.70
2023-04-29T19:13:21.995Z,13.63
2023-04-29T19:16:24.888Z,13.58
2023-04-29T19:19:30.136Z,13.52
2023-04-29T19:22:32.664Z,13.46
2023-04-29T19:25:35.258Z,13.42
2023-04-29T19:28:38.071Z,13.38
2023-04-29T19:31:40.664Z,13.31
2023-04-29T19:34:44.568Z,13.25
2023-04-29T19:37:47.137Z,13.18
2023-04-29T19:40:49.866Z,13.12
2023-04-29T19:43:52.355Z,13.07
2023-04-29T19:46:55.289Z,13.03
2023-04-29T19:49:59.394Z,12.99
2023-04-29T19:53:01.918Z,12.94
2023-04-29T19:56:04.610Z,12.87
2023-04-29T19:59:07.169Z,12.81
2023-04-29T20:02:09.836Z,12.75
2023-04-29T20:05:13.803Z,12.70
2023-04-29T20:08:16.375Z,12.66
2023-04-29T20:11:18.988Z,12.58
2023-04-29T20:14:21.568Z,12.48
2023-04-29T20:17:24.287Z,12.31
2023-04-29T20:20:28.537Z,12.27
2023-04-29T20:23:31.758Z,12.19
2023-04-29T20:26:34.304Z,12.07
2023-04-29T20:29:36.867Z,11.96
2023-04-29T20:32:39.486Z,11.90
2023-04-29T20:35:43.419Z,11.89
2023-04-29T20:38:48.518Z,11.87
2023-04-29T20:41:51.554Z,11.84
2023-04-29T20:44:54.204Z,11.81
2023-04-29T20:47:56.768Z,11.80
2023-04-29T20:51:00.794Z,11.79
2023-04-29T20:54:03.424Z,11.77
2023-04-29T20:57:06.078Z,11.73
2023-04-29T21:00:09.818Z,11.72
2023-04-29T21:03:12.404Z,11.69
2023-04-29T21:06:17.069Z,11.65
2023-04-29T21:09:19.864Z,11.62
2023-04-29T21:12:22.441Z,11.58
2023-04-29T21:15:26.652Z,11.58
2023-04-29T21:18:29.256Z,11.57
2023-04-29T21:21:33.161Z,11.56
2023-04-29T21:24:35.749Z,11.52
2023-04-29T21:27:38.333Z,11.49
2023-04-29T21:30:40.944Z,11.47
2023-04-29T21:33:44.226Z,11.44
2023-04-29T21:36:48.187Z,11.37
2023-04-29T21:39:51.325Z,11.31
2023-04-29T21:42:55.149Z,11.23
2023-04-29T21:45:57.725Z,11.16
2023-04-29T21:49:00.490Z,11.10
2023-04-29T21:52:04.581Z,11.06
2023-04-29T21:55:07.612Z,10.97
2023-04-29T21:58:10.910Z,10.90
2023-04-29T22:01:27.217Z,10.80
2023-04-29T22:04:29.934Z,10.76
2023-04-29T22:07:33.808Z,10.69
2023-04-29T22:10:39.960Z,10.66
2023-04-29T22:13:45.051Z,10.57
2023-04-29T22:16:47.732Z,10.50
2023-04-29T22:19:50.376Z,10.47
2023-04-29T22:22:54.316Z,10.45
2023-04-29T22:25:56.876Z,10.42
2023-04-29T22:28:59.410Z,10.41
2023-04-29T22:32:02.076Z,10.37
2023-04-29T22:35:05.046Z,10.35
2023-04-29T22:38:09.517Z,10.34
2023-04-29T22:41:12.456Z,10.31
2023-04-29T22:44:15.333Z,10.30
2023-04-29T22:47:17.904Z,10.26
2023-04-29T22:50:20.604Z,10.25
2023-04-29T22:53:24.675Z,10.21
2023-04-29T22:56:28.674Z,10.20
2023-04-29T22:59:31.211Z,10.13
2023-04-29T23:02:33.759Z,10.07
2023-04-29T23:05:36.288Z,10.00
2023-04-29T23:08:40.189Z,9.95
2023-04-29T23:11:43.348Z,9.89
2023-04-29T23:14:45.854Z,9.86
2023-04-29T23:17:48.502Z,9.82
2023-04-29T23:20:51.376Z,9.79
2023-04-29T23:23:55.618Z,9.75
2023-04-29T23:26:58.164Z,9.75
2023-04-29T23:30:00.701Z,9.62
2023-04-29T23:33:03.263Z,9.52
2023-04-29T23:36:06.677Z,9.48
2023-04-29T23:39:10.530Z,9.47
2023-04-29T23:42:13.337Z,9.46
2023-04-29T23:45:15.993Z,9.45
2023-04-29T23:48:18.519Z,9.33
2023-04-29T23:51:21.048Z,9.17
2023-04-29T23:54:24.918Z,9.06
2023-04-29T23:57:27.448Z,9.01
